Ryouei Maru — JL6703 — position and weather

sailwx.info

Track history (hours):
 
Tides and Currents Weather Stations Pressure Air Temp Water Temp Dewpoint Dewpoint Depression Visibility Wind Speed Wind Dir Waves Ship Positions

Ryouei Maru

Last reported at 2014-Aug-22 01:30 UTC. Time now 2014-Aug-22 02:03 UTC.
Position N 35°37' E 139°47'.

Length 100 m; draft 5 m.

Type: Cargo ship. MMSI: 431501749.

Date/timePositionNaut miles runAvg speedWind from/ knotsBaromVisibWave heightAir tempDewpointWater temp
2014-Aug-22 01:30N 35°37' E 139°47'0 0.0
2014-Aug-22 00:30N 35°37' E 139°47'0 0.0
2014-Aug-21 23:30N 35°37' E 139°47'0 0.0
2014-Aug-21 22:30N 35°37' E 139°47'1 0.7
2014-Aug-21 21:33N 35°37' E 139°48'8 8.4
2014-Aug-21 20:33N 35°29' E 139°52'1110.6
2014-Aug-21 19:33N 35°20' E 139°44'1111.2
2014-Aug-21 18:33N 35°09' E 139°47'1312.1
2014-Aug-21 17:31N 34°57' E 139°44'12 9.9
2014-Aug-21 16:21N 34°52' E 139°57'910.9
2014-Aug-21 15:33N 34°56' E 140°07'1211.6
2014-Aug-21 14:32N 35°02' E 140°19'1311.8
2014-Aug-21 13:26N 35°11' E 140°31'  
2014-Aug-18 19:25N 36°18' E 141°00'1813.4
2014-Aug-18 18:06N 36°00' E 140°58'713.3
2014-Aug-18 17:32N 35°53' E 140°58'1313.4
2014-Aug-18 16:33N 35°40' E 140°54'1313.3
2014-Aug-18 15:33N 35°28' E 140°47'1613.8
2014-Aug-18 14:24N 35°15' E 140°35'1413.8
2014-Aug-18 13:22N 35°04' E 140°24'1114.0
2014-Aug-18 12:33N 34°58' E 140°12'1414.2
2014-Aug-18 11:33N 34°51' E 139°58'1514.3
2014-Aug-18 10:31N 34°45' E 139°41'1613.8
2014-Aug-18 09:22N 34°37' E 139°24'4014.0
2014-Aug-18 06:30N 34°32' E 138°36'18211.4
2014-Aug-17 14:29N 33°58' E 134°60'1112.0
2014-Aug-17 13:33N 34°09' E 134°59'1212.6
2014-Aug-17 12:33N 34°21' E 134°59'1212.4
2014-Aug-17 11:33N 34°30' E 135°10'1312.6
2014-Aug-17 10:32N 34°38' E 135°22'3 2.6
2014-Aug-17 09:29N 34°37' E 135°26'0 0.0
2014-Aug-17 08:29N 34°37' E 135°26'0 0.0
2014-Aug-17 07:29N 34°37' E 135°26'0 0.0
2014-Aug-17 06:23N 34°37' E 135°26'0 0.1
2014-Aug-17 05:29N 34°37' E 135°26'0 0.0
2014-Aug-17 04:29N 34°37' E 135°26'0 0.0
2014-Aug-17 03:29N 34°37' E 135°26'0 0.0
2014-Aug-17 02:29N 34°37' E 135°26'0 0.0
2014-Aug-17 01:29N 34°37' E 135°26'0 0.0
2014-Aug-17 00:29N 34°37' E 135°26'0 0.0
2014-Aug-16 23:29N 34°37' E 135°26'0 0.0
2014-Aug-16 22:23N 34°37' E 135°26'4 4.4
2014-Aug-16 21:33N 34°36' E 135°21'1110.9
2014-Aug-16 20:33N 34°29' E 135°12'7 6.6
2014-Aug-16 19:33N 34°24' E 135°07'1110.7
2014-Aug-16 18:33N 34°15' E 134°60'1313.0
2014-Aug-16 17:33N 34°02' E 135°00'180 9.8
2014-Aug-15 23:12N 34°32' E 138°35'5912.3
2014-Aug-15 18:27N 34°45' E 139°45'1212.6
2014-Aug-15 17:31N 34°51' E 139°57'1412.4
2014-Aug-15 16:26N 34°58' E 140°11'23 9.8
2014-Aug-15 14:08N 35°12' E 140°33'  
2014-Aug-12 06:06N 36°03' E 140°59'2314.1
2014-Aug-12 04:30N 35°40' E 140°56'1413.9
2014-Aug-12 03:29N 35°29' E 140°47'1414.1
2014-Aug-12 02:29N 35°17' E 140°37'  
Track history (hours):
 
Tides and Currents Weather Stations Pressure Air Temp Water Temp Dewpoint Dewpoint Depression Visibility Wind Speed Wind Dir Waves Ship Positions

Ryouei Maru

Last reported at 2014-Aug-22 01:30 UTC. Time now 2014-Aug-22 02:03 UTC.
Position N 35°37' E 139°47'.

Length 100 m; draft 5 m.

Type: Cargo ship. MMSI: 431501749.

Date/timePositionNaut miles runAvg speedWind from/ knotsBaromVisibWave heightAir tempDewpointWater temp
2014-Aug-22 01:30N 35°37' E 139°47'0 0.0
2014-Aug-22 00:30N 35°37' E 139°47'0 0.0
2014-Aug-21 23:30N 35°37' E 139°47'0 0.0
2014-Aug-21 22:30N 35°37' E 139°47'1 0.7
2014-Aug-21 21:33N 35°37' E 139°48'8 8.4
2014-Aug-21 20:33N 35°29' E 139°52'1110.6
2014-Aug-21 19:33N 35°20' E 139°44'1111.2
2014-Aug-21 18:33N 35°09' E 139°47'1312.1
2014-Aug-21 17:31N 34°57' E 139°44'12 9.9
2014-Aug-21 16:21N 34°52' E 139°57'910.9
2014-Aug-21 15:33N 34°56' E 140°07'1211.6
2014-Aug-21 14:32N 35°02' E 140°19'1311.8
2014-Aug-21 13:26N 35°11' E 140°31'  
2014-Aug-18 19:25N 36°18' E 141°00'1813.4
2014-Aug-18 18:06N 36°00' E 140°58'713.3
2014-Aug-18 17:32N 35°53' E 140°58'1313.4
2014-Aug-18 16:33N 35°40' E 140°54'1313.3
2014-Aug-18 15:33N 35°28' E 140°47'1613.8
2014-Aug-18 14:24N 35°15' E 140°35'1413.8
2014-Aug-18 13:22N 35°04' E 140°24'1114.0
2014-Aug-18 12:33N 34°58' E 140°12'1414.2
2014-Aug-18 11:33N 34°51' E 139°58'1514.3
2014-Aug-18 10:31N 34°45' E 139°41'1613.8
2014-Aug-18 09:22N 34°37' E 139°24'4014.0
2014-Aug-18 06:30N 34°32' E 138°36'18211.4
2014-Aug-17 14:29N 33°58' E 134°60'1112.0
2014-Aug-17 13:33N 34°09' E 134°59'1212.6
2014-Aug-17 12:33N 34°21' E 134°59'1212.4
2014-Aug-17 11:33N 34°30' E 135°10'1312.6
2014-Aug-17 10:32N 34°38' E 135°22'3 2.6
2014-Aug-17 09:29N 34°37' E 135°26'0 0.0
2014-Aug-17 08:29N 34°37' E 135°26'0 0.0
2014-Aug-17 07:29N 34°37' E 135°26'0 0.0
2014-Aug-17 06:23N 34°37' E 135°26'0 0.1
2014-Aug-17 05:29N 34°37' E 135°26'0 0.0
2014-Aug-17 04:29N 34°37' E 135°26'0 0.0
2014-Aug-17 03:29N 34°37' E 135°26'0 0.0
2014-Aug-17 02:29N 34°37' E 135°26'0 0.0
2014-Aug-17 01:29N 34°37' E 135°26'0 0.0
2014-Aug-17 00:29N 34°37' E 135°26'0 0.0
2014-Aug-16 23:29N 34°37' E 135°26'0 0.0
2014-Aug-16 22:23N 34°37' E 135°26'4 4.4
2014-Aug-16 21:33N 34°36' E 135°21'1110.9
2014-Aug-16 20:33N 34°29' E 135°12'7 6.6
2014-Aug-16 19:33N 34°24' E 135°07'1110.7
2014-Aug-16 18:33N 34°15' E 134°60'1313.0
2014-Aug-16 17:33N 34°02' E 135°00'180 9.8
2014-Aug-15 23:12N 34°32' E 138°35'5912.3
2014-Aug-15 18:27N 34°45' E 139°45'1212.6
2014-Aug-15 17:31N 34°51' E 139°57'1412.4
2014-Aug-15 16:26N 34°58' E 140°11'23 9.8
2014-Aug-15 14:08N 35°12' E 140°33'  
2014-Aug-12 06:06N 36°03' E 140°59'2314.1
2014-Aug-12 04:30N 35°40' E 140°56'1413.9
2014-Aug-12 03:29N 35°29' E 140°47'1414.1
2014-Aug-12 02:29N 35°17' E 140°37'  

Dump ship's entire track history